Terminal Aerodrome Forecast
Issued by NWS

Home | Current Version | Previous Version | Text Only | Print | Product List | Glossary On
Versions: 1 2 3 4 5 6 7 8 9 10 11 12 13 14 15 16 17 18 19 20 21 22 23 24 25 26 27 28 29 30 31 32 33 34 35
000
FTUS46 KLOX 032300
TAFLAX
TAF
KLAX 032340Z 0400/0506 26015KT P6SM FEW090
     FM040200 27008KT P6SM SKC
     FM040500 30005KT P6SM SKC
     FM040900 05005KT P6SM SKC
     FM042100 26008KT P6SM SKC
     FM050500 VRB03KT P6SM SKC=

USA.gov is the U.S. government's official web portal to all federal, state and local government web resources and services.